Data for 02/25/2018

Time Sea-Level Adjusted Pressure Absolute Pressure Temperature Relative Humidity Dew Point   
(mb) (inHg) (mb) (inHg) (C) (F) (%) (C) (F)
00:05 1011 29.85 840 24.81 -5.7 21.7 72 -10 14
00:10 1011 29.85 840 24.81 -5.9 21.5 72 -10.1 13.9
00:15 1011 29.85 840 24.81 -5.9 21.3 71 -10.3 13.5
00:20 1011 29.85 840 24.81 -5.9 21.4 70 -10.5 13
00:25 1011 29.85 840 24.81 -5.9 21.4 67 -11.1 12.1
00:30 1011 29.85 840 24.81 -5.9 21.3 66 -11.4 11.6
00:35 1011 29.85 840 24.81 -6 21.3 65 -11.6 11.2
00:40 1011 29.85 840 24.81 -6 21.2 63 -11.9 10.6
00:45 1011 29.85 840 24.81 -6 21.2 62 -12.2 10
00:50 1011 29.85 840 24.81 -6 21.2 58 -13.1 8.5
00:55 1011 29.85 840 24.81 -5.8 21.5 56 -13.4 7.9
01:00 1011 29.85 840 24.81 -5.5 22.1 54 -13.4 7.8
01:05 1011 29.85 840 24.81 -5.3 22.5 52 -13.6 7.6
01:10 1011 29.85 840 24.81 -5 22.9 52 -13.6 7.6
01:15 1011 29.85 840 24.81 -5 23 51 -13.7 7.3
01:20 1011 29.85 840 24.81 -4.9 23.2 51 -13.6 7.6
01:25 1011 29.85 840 24.81 -4.9 23.2 51 -13.4 7.8
01:30 1011 29.85 840 24.81 -4.9 23.2 51 -13.5 7.7
01:35 1011 29.85 840 24.81 -4.9 23.2 51 -13.6 7.5
01:40 1011 29.85 840 24.81 -4.9 23.2 50 -13.7 7.3
01:45 1011 29.85 840 24.81 -5 23 51 -13.8 7.2
01:50 1011 29.85 840 24.81 -5.1 22.8 50 -14.1 6.6
01:55 1011 29.85 840 24.81 -5.2 22.7 50 -14 6.9
02:00 1011 29.85 840 24.81 -5.4 22.2 52 -13.9 7.1
02:05 1011 29.85 840 24.81 -5.7 21.8 52 -14 6.9
02:10 1011 29.85 840 24.81 -5.8 21.5 54 -13.8 7.2
02:15 1011 29.85 840 24.81 -5.9 21.3 54 -13.9 7.1
02:20 1011 29.85 840 24.81 -6 21.2 53 -14.1 6.7
02:25 1011 29.85 840 24.81 -5.9 21.5 52 -14.3 6.3
02:30 1010 29.83 840 24.81 -5.7 21.7 50 -14.6 5.8
02:35 1010 29.83 840 24.81 -5.8 21.6 50 -14.6 5.7
02:40 1010 29.83 840 24.81 -5.8 21.6 50 -14.6 5.8
02:45 1010 29.83 840 24.81 -6 21.3 50 -14.8 5.4
02:50 1010 29.83 840 24.81 -6.1 20.9 51 -14.8 5.4
02:55 1010 29.83 840 24.81 -6.3 20.7 50 -15 5
03:00 1010 29.83 840 24.81 -6.4 20.5 50 -15.2 4.7
03:05 1010 29.83 840 24.81 -6.4 20.5 50 -15.2 4.6
03:10 1010 29.83 840 24.81 -6.4 20.5 50 -15.3 4.5
03:15 1010 29.83 840 24.81 -6.2 20.8 48 -15.4 4.2
03:20 1010 29.83 839 24.78 -6 21.3 48 -15.4 4.3
03:25 1010 29.83 839 24.78 -5.8 21.5 48 -15.2 4.6
03:30 1010 29.83 839 24.78 -5.8 21.6 47 -15.4 4.3
03:35 1010 29.83 839 24.78 -5.7 21.7 47 -15.4 4.2
03:40 1010 29.83 839 24.78 -5.7 21.7 46 -15.6 3.9
03:45 1010 29.83 840 24.81 -5.6 21.8 47 -15.3 4.5
03:50 1010 29.83 839 24.78 -5.7 21.7 47 -15.5 4.2
03:55 1010 29.83 840 24.81 -5.7 21.8 48 -15 4.9
04:00 1010 29.83 840 24.81 -5.8 21.6 47 -15.3 4.5
04:05 1010 29.83 840 24.81 -5.7 21.7 48 -15.1 4.8
04:10 1010 29.83 840 24.81 -5.9 21.4 50 -14.8 5.4
04:15 1010 29.83 840 24.81 -6.3 20.7 52 -14.7 5.6
04:20 1010 29.83 840 24.81 -6.5 20.2 53 -14.7 5.6
04:25 1010 29.83 840 24.81 -6.6 20.1 52 -15 5
04:30 1010 29.83 839 24.78 -6.4 20.5 50 -15.2 4.7
04:35 1010 29.83 839 24.78 -6 21.1 48 -15.4 4.3
04:40 1010 29.83 839 24.78 -5.8 21.6 47 -15.5 4.1
04:45 1010 29.83 839 24.78 -5.7 21.7 46 -15.6 4
04:50 1010 29.83 839 24.78 -5.8 21.5 47 -15.4 4.3
04:55 1010 29.83 839 24.78 -6 21.2 48 -15.4 4.2
05:00 1010 29.83 839 24.78 -6.2 20.9 48 -15.6 3.9
05:05 1010 29.83 839 24.78 -6.2 20.8 47 -15.7 3.8
05:10 1010 29.83 839 24.78 -6.3 20.7 48 -15.7 3.7
05:15 1010 29.83 839 24.78 -6.4 20.5 48 -15.8 3.5
05:20 1010 29.83 839 24.78 -6.3 20.6 47 -15.8 3.5
05:25 1010 29.83 839 24.78 -6.3 20.7 47 -15.9 3.4
05:30 1010 29.83 839 24.78 -6.2 20.8 47 -15.9 3.4
05:35 1010 29.83 839 24.78 -6.1 21.1 46 -15.9 3.3
05:40 1010 29.83 839 24.78 -5.8 21.5 44 -16.1 2.9
05:45 1010 29.83 839 24.78 -5.7 21.8 44 -16.1 3
05:50 1010 29.83 839 24.78 -5.6 21.9 44 -16.1 3
05:55 1010 29.83 840 24.81 -5.7 21.8 44 -16.2 2.8
06:00 1010 29.83 839 24.78 -5.6 21.9 42 -16.5 2.3
06:05 1010 29.83 839 24.78 -5.5 22.1 42 -16.5 2.3
06:10 1010 29.83 840 24.81 -5.6 21.9 44 -16.1 3
06:15 1010 29.83 840 24.81 -5.9 21.4 45 -16.1 3.1
06:20 1010 29.83 840 24.81 -6.2 20.9 46 -16.1 3
06:25 1010 29.83 840 24.81 -6.2 20.9 45 -16.4 2.5
06:30 1010 29.83 840 24.81 -6.2 20.8 45 -16.3 2.7
06:35 1010 29.83 840 24.81 -6.2 20.8 44 -16.5 2.2
06:40 1010 29.83 840 24.81 -6.2 20.9 45 -16.4 2.5
06:45 1010 29.83 840 24.81 -6.2 20.8 45 -16.4 2.6
06:50 1011 29.85 840 24.81 -6 21.2 44 -16.4 2.4
06:55 1011 29.85 840 24.81 -6 21.3 45 -16.1 2.9
07:00 1011 29.85 840 24.81 -6 21.1 46 -16 3.3
07:05 1011 29.85 840 24.81 -6.1 21.1 46 -15.9 3.4
07:10 1011 29.85 840 24.81 -6 21.3 46 -15.8 3.6
07:15 1011 29.85 840 24.81 -6 21.3 46 -15.7 3.7
07:20 1011 29.85 840 24.81 -6 21.2 47 -15.6 3.9
07:25 1011 29.85 840 24.81 -5.9 21.4 47 -15.5 4.2
07:30 1011 29.85 840 24.81 -5.9 21.3 49 -15.1 4.9
07:35 1011 29.85 840 24.81 -5.9 21.4 48 -15.2 4.7
07:40 1011 29.85 840 24.81 -5.8 21.6 47 -15.2 4.6
07:45 1011 29.85 840 24.81 -5.5 22.1 45 -15.6 3.9
07:50 1011 29.85 840 24.81 -5.1 22.8 43 -15.7 3.7
07:55 1011 29.85 840 24.81 -4.9 23.2 44 -15.5 4.2
08:00 1011 29.85 840 24.81 -4.8 23.4 44 -15.3 4.4
08:05 1011 29.85 840 24.81 -4.8 23.3 44 -15.4 4.2
08:10 1011 29.85 840 24.81 -4.8 23.3 43 -15.6 3.9
08:15 1011 29.85 840 24.81 -4.8 23.4 44 -15.3 4.4
08:20 1011 29.85 840 24.81 -4.8 23.3 43 -15.5 4.1
08:25 1011 29.85 840 24.81 -4.8 23.4 42 -15.8 3.5
08:30 1011 29.85 840 24.81 -4.7 23.5 43 -15.5 4.1
08:35 1011 29.85 840 24.81 -4.7 23.6 44 -15.3 4.5
08:40 1011 29.85 840 24.81 -4.5 23.8 44 -15.1 4.7
08:45 1011 29.85 840 24.81 -4.5 23.8 43 -15.3 4.4
08:50 1011 29.85 840 24.81 -4.6 23.8 43 -15.2 4.6
08:55 1011 29.85 840 24.81 -4.5 24 43 -15.2 4.6
09:00 1011 29.85 840 24.81 -4.2 24.4 42 -15.3 4.5
09:05 1011 29.85 840 24.81 -4 24.9 41 -15.5 4.1
09:10 1011 29.85 840 24.81 -3.9 25.1 42 -15.1 4.8
09:15 1011 29.85 840 24.81 -3.8 25.2 42 -14.9 5.1
09:20 1011 29.85 840 24.81 -3.7 25.3 41 -15.1 4.9
09:25 1011 29.85 840 24.81 -3.7 25.3 40 -15.5 4.2
09:30 1011 29.85 840 24.81 -3.6 25.6 40 -15.3 4.5
09:35 1011 29.85 840 24.81 -3.4 25.9 39 -15.4 4.4
09:40 1011 29.85 840 24.81 -3.4 26 39 -15.5 4.1
09:45 1011 29.85 840 24.81 -3.3 26 38 -15.8 3.6
09:50 1011 29.85 840 24.81 -3.3 26.1 38 -15.8 3.6
09:55 1011 29.85 840 24.81 -3.2 26.2 39 -15.4 4.3
10:00 1011 29.85 840 24.81 -3.2 26.3 39 -15.4 4.3
10:05 1011 29.85 840 24.81 -3.2 26.3 40 -14.9 5.1
10:10 1011 29.85 840 24.81 -3.2 26.2 40 -15.1 4.7
10:15 1011 29.85 840 24.81 -3.1 26.5 40 -14.8 5.4
10:20 1011 29.85 840 24.81 -3.1 26.4 40 -14.9 5.1
10:25 1011 29.85 840 24.81 -3 26.7 40 -14.8 5.4
10:30 1011 29.85 840 24.81 -3 26.6 39 -15.1 4.9
10:35 1011 29.85 840 24.81 -3 26.5 40 -15 5.1
10:40 1011 29.85 840 24.81 -3 26.6 41 -14.5 5.9
10:45 1011 29.85 840 24.81 -3 26.7 41 -14.5 5.8
10:50 1011 29.85 840 24.81 -3 26.6 43 -14 6.8
10:55 1011 29.85 840 24.81 -3 26.6 42 -14.2 6.5
11:00 1011 29.85 840 24.81 -2.9 26.7 41 -14.4 6.1
11:05 1011 29.85 840 24.81 -2.9 26.8 41 -14.3 6.3
11:10 1011 29.85 840 24.81 -2.9 26.9 41 -14.4 6.2
11:15 1011 29.85 840 24.81 -2.7 27.1 40 -14.4 6.1
11:20 1011 29.85 840 24.81 -2.4 27.6 38 -15.1 4.9
11:25 1011 29.85 840 24.81 -2.2 28 38 -14.8 5.4
11:30 1011 29.85 840 24.81 -2.1 28.2 38 -14.6 5.8
11:35 1011 29.85 840 24.81 -2 28.4 40 -14 6.7
11:40 1011 29.85 840 24.81 -1.9 28.6 37 -14.6 5.7
11:45 1011 29.85 840 24.81 -1.8 28.7 39 -14.1 6.7
11:50 1011 29.85 840 24.81 -1.8 28.8 39 -14.1 6.6
11:55 1011 29.85 840 24.81 -1.5 29.3 36 -14.6 5.7
12:00 1011 29.85 840 24.81 -1.4 29.5 36 -14.7 5.5
12:05 1011 29.85 840 24.81 -1.3 29.6 36 -14.6 5.8
12:10 1011 29.85 840 24.81 -1.2 29.8 37 -14.3 6.3
12:15 1011 29.85 840 24.81 -1.2 29.9 36 -14.4 6.1
12:20 1011 29.85 840 24.81 -1.1 29.9 36 -14.3 6.2
12:25 1011 29.85 840 24.81 -0.9 30.3 36 -14.4 6.1
12:30 1011 29.85 840 24.81 -0.8 30.6 35 -14.3 6.2
12:35 1011 29.85 840 24.81 -0.8 30.5 34 -14.7 5.6
12:40 1011 29.85 840 24.81 -0.7 30.8 35 -14.5 5.9
12:45 1011 29.85 840 24.81 -0.7 30.7 36 -13.9 7
12:50 1011 29.85 840 24.81 -0.9 30.4 36 -14.2 6.4
12:55 1011 29.85 840 24.81 -0.6 30.9 36 -14.1 6.6
13:00 1010 29.83 840 24.81 -0.5 31.1 32 -15.5 4.2
13:05 1010 29.83 840 24.81 -0.2 31.6 33 -14.7 5.6
13:10 1010 29.83 840 24.81 -0.4 31.3 35 -14.2 6.5
13:15 1010 29.83 839 24.78 -0.5 31.1 34 -14.6 5.7
13:20 1010 29.83 839 24.78 -0.7 30.8 38 -13.3 8
13:25 1010 29.83 839 24.78 -0.7 30.7 38 -13.5 7.7
13:30 1010 29.83 839 24.78 -0.9 30.4 38 -13.4 7.9
13:35 1010 29.83 839 24.78 -0.9 30.5 37 -13.7 7.3
13:40 1010 29.83 839 24.78 -0.9 30.4 40 -12.8 8.9
13:45 1010 29.83 839 24.78 -0.9 30.4 39 -13.3 8
13:50 1010 29.83 839 24.78 -0.7 30.7 39 -13.1 8.4
13:55 1010 29.83 839 24.78 -0.6 31 37 -13.7 7.3
14:00 1010 29.83 839 24.78 -0.4 31.3 37 -13.4 7.8
14:05 1010 29.83 839 24.78 -0.4 31.3 37 -13.5 7.7
14:10 1010 29.83 839 24.78 -0.4 31.3 38 -13.1 8.4
14:15 1010 29.83 839 24.78 -0.2 31.6 37 -13.3 8
14:20 1010 29.83 839 24.78 -0.1 31.8 34 -14.3 6.3
14:25 1010 29.83 839 24.78 -0 32 35 -13.7 7.3
14:30 1010 29.83 839 24.78 0.2 32.4 34 -14 6.8
14:35 1010 29.83 839 24.78 0.5 32.9 33 -13.9 7.1
14:40 1009 29.8 839 24.78 0.6 33.1 34 -13.4 7.9
14:45 1009 29.8 839 24.78 0.2 32.4 34 -13.9 7
14:50 1009 29.8 838 24.75 0.2 32.4 35 -13.4 7.9
14:55 1009 29.8 838 24.75 0.3 32.6 34 -13.8 7.2
15:00 1009 29.8 838 24.75 0.5 32.9 34 -13.8 7.2
15:05 1009 29.8 838 24.75 0.2 32.4 36 -13.3 8
15:10 1009 29.8 838 24.75 0.3 32.5 36 -13 8.7
15:15 1009 29.8 838 24.75 0.6 33.2 36 -12.7 9.2
15:20 1009 29.8 838 24.75 0.8 33.5 33 -13.7 7.3
15:25 1009 29.8 838 24.75 0.8 33.5 33 -13.8 7.2
15:30 1009 29.8 838 24.75 0.8 33.4 35 -13 8.5
15:35 1009 29.8 838 24.75 0.8 33.4 33 -13.6 7.6
15:40 1009 29.8 838 24.75 0.7 33.2 34 -13.7 7.4
15:45 1009 29.8 838 24.75 0.5 32.9 36 -13 8.6
15:50 1009 29.8 838 24.75 0.3 32.5 36 -13.1 8.3
15:55 1009 29.8 838 24.75 -0 32 37 -13.2 8.2
16:00 1009 29.8 838 24.75 0 32 35 -13.7 7.3
16:05 1009 29.8 838 24.75 -0 31.9 36 -13.3 8
16:10 1009 29.8 838 24.75 -0.2 31.7 37 -13.3 8
16:15 1009 29.8 838 24.75 -0.2 31.6 38 -13 8.6
16:20 1009 29.8 838 24.75 -0.2 31.7 37 -13.2 8.3
16:25 1009 29.8 838 24.75 0 32 38 -12.7 9.1
16:30 1009 29.8 838 24.75 0.2 32.3 39 -12.4 9.8
16:35 1009 29.8 838 24.75 0.1 32.2 37 -13 8.5
16:40 1009 29.8 838 24.75 0.1 32.1 38 -12.5 9.5
16:45 1009 29.8 838 24.75 0 32.1 38 -12.8 9
16:50 1009 29.8 838 24.75 -0.1 31.9 38 -12.7 9.2
16:55 1009 29.8 838 24.75 0.1 32.2 36 -13.3 8
17:00 1009 29.8 838 24.75 0 32 38 -12.7 9.2
17:05 1009 29.8 838 24.75 -0.2 31.7 39 -12.7 9.2
17:10 1009 29.8 838 24.75 -0.6 30.9 39 -13 8.6
17:15 1009 29.8 838 24.75 -0.7 30.8 40 -12.8 9
17:20 1008 29.77 838 24.75 -0.8 30.6 40 -12.8 9
17:25 1008 29.77 838 24.75 -0.7 30.7 38 -13.3 8.1
17:30 1008 29.77 838 24.75 -0.9 30.5 41 -12.6 9.3
17:35 1008 29.77 837 24.72 -1.1 30 39 -13.3 8
17:40 1008 29.77 837 24.72 -1.2 29.8 40 -13.2 8.2
17:45 1008 29.77 837 24.72 -1.2 29.8 38 -13.7 7.3
17:50 1008 29.77 837 24.72 -1.1 30 39 -13.4 7.9
17:55 1008 29.77 837 24.72 -1.2 29.9 39 -13.6 7.6
18:00 1008 29.77 837 24.72 -1.2 29.9 37 -14 6.9
18:05 1008 29.77 837 24.72 -1.1 30 38 -13.6 7.6
18:10 1008 29.77 837 24.72 -1.1 30 37 -14 6.8
18:15 1008 29.77 837 24.72 -1.1 30 37 -13.9 6.9
18:20 1008 29.77 837 24.72 -1.3 29.7 37 -14.1 6.6
18:25 1008 29.77 837 24.72 -1.4 29.5 38 -14.1 6.5
18:30 1008 29.77 837 24.72 -1.5 29.3 38 -14 6.8
18:35 1008 29.77 837 24.72 -1.6 29.2 41 -13.3 8.1
18:40 1008 29.77 837 24.72 -1.7 28.9 41 -13.4 7.9
18:45 1008 29.77 837 24.72 -1.8 28.7 40 -13.8 7.1
18:50 1008 29.77 837 24.72 -1.7 28.9 37 -14.6 5.8
18:55 1008 29.77 837 24.72 -1.5 29.3 38 -14 6.7
19:00 1008 29.77 837 24.72 -1.6 29.2 37 -14.4 6.1
19:05 1008 29.77 837 24.72 -1.5 29.3 37 -14.5 5.8
19:10 1008 29.77 837 24.72 -1.3 29.6 35 -15 5
19:15 1008 29.77 837 24.72 -1 30.2 34 -15 5
19:20 1008 29.77 837 24.72 -1 30.1 33 -15.3 4.5
19:25 1008 29.77 837 24.72 -0.8 30.6 34 -14.6 5.6
19:30 1008 29.77 837 24.72 -0.9 30.4 36 -14.4 6.2
19:35 1008 29.77 837 24.72 -1.1 30.1 34 -15 5.1
19:40 1008 29.77 837 24.72 -1 30.1 36 -14.3 6.3
19:45 1008 29.77 837 24.72 -1.3 29.7 36 -14.4 6
19:50 1008 29.77 837 24.72 -1.4 29.5 37 -14.4 6.1
19:55 1008 29.77 837 24.72 -1.4 29.5 35 -14.9 5.1
20:00 1008 29.77 837 24.72 -1.3 29.7 36 -14.5 5.9
20:05 1008 29.77 837 24.72 -1.3 29.7 36 -14.6 5.8
20:10 1008 29.77 837 24.72 -1.1 30 34 -15 5
20:15 1008 29.77 837 24.72 -1 30.2 34 -14.9 5.1
20:20 1008 29.77 837 24.72 -0.9 30.3 36 -14.3 6.3
20:25 1008 29.77 837 24.72 -1 30.2 35 -14.7 5.5
20:30 1008 29.77 837 24.72 -1 30.1 34 -15.1 4.9
20:35 1008 29.77 837 24.72 -1.1 30 35 -14.6 5.7
20:40 1008 29.77 837 24.72 -1.3 29.7 37 -14.3 6.3
20:45 1008 29.77 837 24.72 -1.2 29.9 36 -14.4 6.2
20:50 1008 29.77 837 24.72 -1.2 29.8 37 -14.1 6.6
20:55 1008 29.77 837 24.72 -1.3 29.6 36 -14.6 5.8
21:00 1008 29.77 837 24.72 -1.1 30.1 35 -14.7 5.5
21:05 1008 29.77 837 24.72 -1 30.2 36 -14.5 6
21:10 1008 29.77 837 24.72 -1 30.2 36 -14.3 6.3
21:15 1008 29.77 837 24.72 -1 30.2 37 -13.9 7
21:20 1008 29.77 837 24.72 -1 30.1 36 -14.5 6
21:25 1007 29.74 837 24.72 -0.9 30.4 34 -14.9 5.2
21:30 1008 29.77 837 24.72 -0.6 30.9 36 -13.9 6.9
21:35 1008 29.77 837 24.72 -0.7 30.7 35 -14.3 6.2
21:40 1008 29.77 837 24.72 -0.7 30.7 34 -14.8 5.4
21:45 1007 29.74 837 24.72 -0.3 31.4 33 -14.9 5.2
21:50 1007 29.74 837 24.72 -0.2 31.7 34 -14.1 6.6
21:55 1007 29.74 837 24.72 -0.5 31.2 36 -13.7 7.4
22:00 1007 29.74 837 24.72 -0.7 30.7 39 -13 8.7
22:05 1007 29.74 837 24.72 -1 30.2 39 -13.2 8.2
22:10 1007 29.74 836 24.69 -0.9 30.3 40 -13 8.6
22:15 1007 29.74 836 24.69 -0.8 30.5 38 -13.5 7.6
22:20 1007 29.74 836 24.69 -0.4 31.3 38 -12.9 8.7
22:25 1007 29.74 836 24.69 -0.4 31.2 40 -12.6 9.3
22:30 1007 29.74 836 24.69 -0.6 30.9 40 -12.5 9.5
22:35 1007 29.74 836 24.69 -0.6 31 40 -12.7 9.1
22:40 1007 29.74 836 24.69 -0.6 30.9 39 -12.8 9
22:45 1007 29.74 836 24.69 -0.7 30.8 40 -12.6 9.4
22:50 1007 29.74 836 24.69 -0.7 30.7 41 -12.5 9.6
22:55 1007 29.74 836 24.69 -0.8 30.5 42 -12.2 10
23:00 1007 29.74 836 24.69 -0.8 30.6 41 -12.5 9.6
23:05 1007 29.74 836 24.69 -0.6 30.9 41 -12.4 9.7
23:10 1007 29.74 836 24.69 -0.7 30.7 42 -12 10.4
23:15 1007 29.74 836 24.69 -0.9 30.4 42 -12.1 10.2
23:20 1007 29.74 836 24.69 -0.8 30.5 43 -11.9 10.6
23:25 1007 29.74 836 24.69 -0.9 30.5 42 -12.1 10.2
23:30 1007 29.74 836 24.69 -0.8 30.6 41 -12.3 9.8
23:35 1007 29.74 836 24.69 -0.5 31 40 -12.7 9.2
23:40 1006 29.71 836 24.69 -0.6 31 39 -12.9 8.9
23:45 1006 29.71 836 24.69 -0.6 30.9 39 -13 8.7
23:50 1006 29.71 835 24.66 -0.8 30.6 40 -12.9 8.8
23:55 1006 29.71 835 24.66 -0.8 30.6 41 -12.5 9.4
24:00 1006 29.71 835 24.66 -0.9 30.3 40 -13 8.7